sensor_id;sensor_type;location;lat;lon;timestamp;pressure;altitude;pressure_sealevel;temperature;humidity
68525;BME280;55524;51.380;13.372;2022-08-03T00:01:47;100691.63;;;17.65;70.23
68525;BME280;55524;51.380;13.372;2022-08-03T00:04:13;100687.84;;;17.55;69.80
68525;BME280;55524;51.380;13.372;2022-08-03T00:06:39;100690.31;;;17.43;69.83
68525;BME280;55524;51.380;13.372;2022-08-03T00:09:07;100679.31;;;17.34;67.98
68525;BME280;55524;51.380;13.372;2022-08-03T00:11:34;100683.53;;;17.24;69.78
68525;BME280;55524;51.380;13.372;2022-08-03T00:14:01;100683.59;;;17.08;68.65
68525;BME280;55524;51.380;13.372;2022-08-03T00:16:27;100677.88;;;17.00;67.86
68525;BME280;55524;51.380;13.372;2022-08-03T00:18:53;100675.47;;;16.95;68.19
68525;BME280;55524;51.380;13.372;2022-08-03T00:21:20;100681.84;;;16.92;68.87
68525;BME280;55524;51.380;13.372;2022-08-03T00:23:46;100680.31;;;16.88;69.64
68525;BME280;55524;51.380;13.372;2022-08-03T00:26:12;100684.88;;;16.86;69.86
68525;BME280;55524;51.380;13.372;2022-08-03T00:28:38;100683.66;;;16.92;70.34
68525;BME280;55524;51.380;13.372;2022-08-03T00:31:05;100683.66;;;16.92;70.30
68525;BME280;55524;51.380;13.372;2022-08-03T00:33:32;100681.06;;;16.90;70.26
68525;BME280;55524;51.380;13.372;2022-08-03T00:35:58;100675.72;;;16.90;69.64
68525;BME280;55524;51.380;13.372;2022-08-03T00:38:24;100679.81;;;16.82;70.12
68525;BME280;55524;51.380;13.372;2022-08-03T00:40:50;100680.09;;;16.77;70.90
68525;BME280;55524;51.380;13.372;2022-08-03T00:43:17;100681.28;;;16.71;71.53
68525;BME280;55524;51.380;13.372;2022-08-03T00:45:43;100676.81;;;16.72;71.38
68525;BME280;55524;51.380;13.372;2022-08-03T00:48:10;100679.75;;;16.67;71.56
68525;BME280;55524;51.380;13.372;2022-08-03T00:50:41;100674.50;;;16.66;71.24
68525;BME280;55524;51.380;13.372;2022-08-03T00:53:10;100677.94;;;16.68;71.95
68525;BME280;55524;51.380;13.372;2022-08-03T00:55:40;100668.22;;;16.67;71.33
68525;BME280;55524;51.380;13.372;2022-08-03T00:58:07;100670.69;;;16.70;70.89
68525;BME280;55524;51.380;13.372;2022-08-03T01:00:38;100670.22;;;16.63;72.00
68525;BME280;55524;51.380;13.372;2022-08-03T01:03:05;100678.72;;;16.54;72.27
68525;BME280;55524;51.380;13.372;2022-08-03T01:05:55;100677.03;;;16.53;71.76
68525;BME280;55524;51.380;13.372;2022-08-03T01:11:43;100672.03;;;16.47;71.18
68525;BME280;55524;51.380;13.372;2022-08-03T01:14:17;100667.59;;;16.47;71.36
68525;BME280;55524;51.380;13.372;2022-08-03T01:17:11;100669.28;;;16.48;71.54
68525;BME280;55524;51.380;13.372;2022-08-03T01:25:27;100664.03;;;16.47;71.69
68525;BME280;55524;51.380;13.372;2022-08-03T01:30:33;100663.97;;;16.48;72.84
68525;BME280;55524;51.380;13.372;2022-08-03T01:33:02;100663.00;;;16.50;73.94
68525;BME280;55524;51.380;13.372;2022-08-03T01:35:49;100671.00;;;16.50;75.02
68525;BME280;55524;51.380;13.372;2022-08-03T01:38:31;100660.34;;;16.50;73.89
68525;BME280;55524;51.380;13.372;2022-08-03T01:41:05;100661.34;;;16.47;73.47
68525;BME280;55524;51.380;13.372;2022-08-03T01:43:32;100653.19;;;16.50;72.38
68525;BME280;55524;51.380;13.372;2022-08-03T01:46:00;100662.44;;;16.59;72.43
68525;BME280;55524;51.380;13.372;2022-08-03T01:48:27;100656.94;;;16.62;72.34
68525;BME280;55524;51.380;13.372;2022-08-03T01:50:56;100654.28;;;16.62;73.28
68525;BME280;55524;51.380;13.372;2022-08-03T01:53:24;100654.28;;;16.62;73.86
68525;BME280;55524;51.380;13.372;2022-08-03T01:55:54;100654.53;;;16.57;74.19
68525;BME280;55524;51.380;13.372;2022-08-03T01:58:21;100656.25;;;16.58;74.60
68525;BME280;55524;51.380;13.372;2022-08-03T02:00:50;100652.47;;;16.62;75.28
68525;BME280;55524;51.380;13.372;2022-08-03T02:03:16;100658.31;;;16.69;75.03
68525;BME280;55524;51.380;13.372;2022-08-03T02:05:45;100655.63;;;16.69;75.69
68525;BME280;55524;51.380;13.372;2022-08-03T02:08:13;100650.28;;;16.69;75.64
68525;BME280;55524;51.380;13.372;2022-08-03T02:10:43;100644.09;;;16.68;76.05
68525;BME280;55524;51.380;13.372;2022-08-03T02:13:11;100646.66;;;16.70;75.67
68525;BME280;55524;51.380;13.372;2022-08-03T02:15:38;100646.53;;;16.73;75.64
68525;BME280;55524;51.380;13.372;2022-08-03T02:18:08;100646.53;;;16.73;75.85
68525;BME280;55524;51.380;13.372;2022-08-03T02:20:36;100653.81;;;16.69;78.31
68525;BME280;55524;51.380;13.372;2022-08-03T02:23:04;100650.34;;;16.53;77.42
68525;BME280;55524;51.380;13.372;2022-08-03T02:25:49;100647.28;;;16.29;74.33
68525;BME280;55524;51.380;13.372;2022-08-03T02:28:19;100658.41;;;16.06;76.82
68525;BME280;55524;51.380;13.372;2022-08-03T02:30:53;100646.63;;;15.78;74.50
68525;BME280;55524;51.380;13.372;2022-08-03T02:33:28;100644.66;;;15.82;75.82
68525;BME280;55524;51.380;13.372;2022-08-03T02:35:56;100651.63;;;15.68;75.29
68525;BME280;55524;51.380;13.372;2022-08-03T02:38:30;100650.78;;;15.68;75.68
68525;BME280;55524;51.380;13.372;2022-08-03T02:40:58;100657.50;;;15.58;77.42
68525;BME280;55524;51.380;13.372;2022-08-03T02:43:26;100668.75;;;15.47;79.94
68525;BME280;55524;51.380;13.372;2022-08-03T02:45:55;100658.16;;;15.30;79.43
68525;BME280;55524;51.380;13.372;2022-08-03T02:48:25;100658.84;;;15.33;78.86
68525;BME280;55524;51.380;13.372;2022-08-03T02:50:55;100652.84;;;15.45;76.80
68525;BME280;55524;51.380;13.372;2022-08-03T02:53:22;100665.88;;;15.34;79.61
68525;BME280;55524;51.380;13.372;2022-08-03T02:55:50;100657.34;;;15.28;78.87
68525;BME280;55524;51.380;13.372;2022-08-03T02:58:19;100667.66;;;15.18;79.90
68525;BME280;55524;51.380;13.372;2022-08-03T03:00:49;100658.66;;;15.20;78.71
68525;BME280;55524;51.380;13.372;2022-08-03T03:03:25;100661.47;;;15.17;82.83
68525;BME280;55524;51.380;13.372;2022-08-03T03:05:52;100669.00;;;15.09;81.88
68525;BME280;55524;51.380;13.372;2022-08-03T03:08:20;100662.97;;;15.06;81.13
68525;BME280;55524;51.380;13.372;2022-08-03T03:10:47;100660.91;;;15.11;81.12
68525;BME280;55524;51.380;13.372;2022-08-03T03:13:20;100663.34;;;15.15;81.44
68525;BME280;55524;51.380;13.372;2022-08-03T03:15:48;100657.00;;;15.18;81.84
68525;BME280;55524;51.380;13.372;2022-08-03T03:18:16;100659.50;;;15.21;81.32
68525;BME280;55524;51.380;13.372;2022-08-03T03:20:42;100658.41;;;15.25;80.92
68525;BME280;55524;51.380;13.372;2022-08-03T03:23:11;100663.88;;;15.22;81.23
68525;BME280;55524;51.380;13.372;2022-08-03T03:25:38;100652.94;;;15.11;79.59
68525;BME280;55524;51.380;13.372;2022-08-03T03:28:05;100664.44;;;15.11;83.02
68525;BME280;55524;51.380;13.372;2022-08-03T03:30:32;100667.03;;;14.95;82.23
68525;BME280;55524;51.380;13.372;2022-08-03T03:32:58;100662.19;;;14.86;82.60
68525;BME280;55524;51.380;13.372;2022-08-03T03:35:26;100658.94;;;14.81;81.20
68525;BME280;55524;51.380;13.372;2022-08-03T03:37:52;100668.22;;;14.90;83.46
68525;BME280;55524;51.380;13.372;2022-08-03T03:40:20;100659.28;;;14.91;83.46
68525;BME280;55524;51.380;13.372;2022-08-03T03:42:46;100663.75;;;14.90;81.78
68525;BME280;55524;51.380;13.372;2022-08-03T03:45:12;100661.09;;;14.90;82.29
68525;BME280;55524;51.380;13.372;2022-08-03T03:47:39;100664.41;;;14.78;82.43
68525;BME280;55524;51.380;13.372;2022-08-03T03:50:09;100661.97;;;14.73;81.02
68525;BME280;55524;51.380;13.372;2022-08-03T03:52:36;100666.88;;;14.64;82.90
68525;BME280;55524;51.380;13.372;2022-08-03T03:55:02;100649.94;;;14.47;80.23
68525;BME280;55524;51.380;13.372;2022-08-03T03:57:29;100654.41;;;14.47;79.81
68525;BME280;55524;51.380;13.372;2022-08-03T03:59:55;100656.88;;;14.51;82.19
68525;BME280;55524;51.380;13.372;2022-08-03T04:02:22;100659.66;;;14.48;84.16
68525;BME280;55524;51.380;13.372;2022-08-03T04:04:48;100656.63;;;14.56;82.66
68525;BME280;55524;51.380;13.372;2022-08-03T04:07:54;100658.47;;;14.73;84.13
68525;BME280;55524;51.380;13.372;2022-08-03T04:10:42;100656.31;;;14.80;83.54
68525;BME280;55524;51.380;13.372;2022-08-03T04:13:56;100656.63;;;14.91;81.37
68525;BME280;55524;51.380;13.372;2022-08-03T04:16:25;100662.25;;;15.02;83.07
68525;BME280;55524;51.380;13.372;2022-08-03T04:19:03;100661.06;;;15.08;82.63
68525;BME280;55524;51.380;13.372;2022-08-03T04:21:32;100658.16;;;15.12;83.47
68525;BME280;55524;51.380;13.372;2022-08-03T04:24:02;100663.44;;;15.14;82.95
68525;BME280;55524;51.380;13.372;2022-08-03T04:26:32;100668.50;;;15.18;82.18
68525;BME280;55524;51.380;13.372;2022-08-03T04:29:00;100664.47;;;15.27;82.81
68525;BME280;55524;51.380;13.372;2022-08-03T04:31:28;100666.75;;;15.35;83.69
68525;BME280;55524;51.380;13.372;2022-08-03T04:33:56;100669.97;;;15.24;81.38
68525;BME280;55524;51.380;13.372;2022-08-03T04:36:26;100675.28;;;15.24;80.98
68525;BME280;55524;51.380;13.372;2022-08-03T04:39:05;100676.44;;;15.36;83.83
68525;BME280;55524;51.380;13.372;2022-08-03T04:41:34;100684.13;;;15.42;83.90
68525;BME280;55524;51.380;13.372;2022-08-03T04:44:01;100684.56;;;15.50;83.53
68525;BME280;55524;51.380;13.372;2022-08-03T04:46:33;100673.59;;;15.56;80.23
68525;BME280;55524;51.380;13.372;2022-08-03T04:49:01;100674.09;;;15.63;79.99
68525;BME280;55524;51.380;13.372;2022-08-03T04:51:27;100680.69;;;15.73;82.25
68525;BME280;55524;51.380;13.372;2022-08-03T04:53:54;100669.50;;;15.82;80.90
68525;BME280;55524;51.380;13.372;2022-08-03T04:56:21;100672.28;;;15.96;80.88
68525;BME280;55524;51.380;13.372;2022-08-03T04:58:47;100678.53;;;16.11;81.02
68525;BME280;55524;51.380;13.372;2022-08-03T05:01:14;100676.91;;;16.25;82.03
68525;BME280;55524;51.380;13.372;2022-08-03T05:03:43;100682.97;;;16.42;82.02
68525;BME280;55524;51.380;13.372;2022-08-03T05:06:10;100677.72;;;16.57;81.34
68525;BME280;55524;51.380;13.372;2022-08-03T05:08:36;100685.09;;;16.67;81.43
68525;BME280;55524;51.380;13.372;2022-08-03T05:11:03;100682.88;;;16.76;81.35
68525;BME280;55524;51.380;13.372;2022-08-03T05:13:29;100680.50;;;16.85;80.80
68525;BME280;55524;51.380;13.372;2022-08-03T05:15:55;100689.41;;;17.00;82.01
68525;BME280;55524;51.380;13.372;2022-08-03T05:18:22;100684.56;;;17.07;80.87
68525;BME280;55524;51.380;13.372;2022-08-03T05:20:48;100689.91;;;17.21;80.68
68525;BME280;55524;51.380;13.372;2022-08-03T05:23:14;100692.59;;;17.35;80.63
68525;BME280;55524;51.380;13.372;2022-08-03T05:25:41;100697.06;;;17.49;80.60
68525;BME280;55524;51.380;13.372;2022-08-03T05:28:07;100695.47;;;17.61;79.40
68525;BME280;55524;51.380;13.372;2022-08-03T05:30:33;100699.97;;;17.75;78.59
68525;BME280;55524;51.380;13.372;2022-08-03T05:33:02;100707.13;;;17.88;78.38
68525;BME280;55524;51.380;13.372;2022-08-03T05:35:29;100695.84;;;17.98;77.88
68525;BME280;55524;51.380;13.372;2022-08-03T05:37:56;100692.56;;;18.07;78.28
68525;BME280;55524;51.380;13.372;2022-08-03T05:40:22;100695.59;;;18.15;77.80
68525;BME280;55524;51.380;13.372;2022-08-03T05:42:48;100699.84;;;18.32;77.98
68525;BME280;55524;51.380;13.372;2022-08-03T05:45:15;100688.44;;;18.42;75.83
68525;BME280;55524;51.380;13.372;2022-08-03T05:47:46;100684.66;;;18.59;75.08
68525;BME280;55524;51.380;13.372;2022-08-03T05:50:13;100686.53;;;18.72;74.93
68525;BME280;55524;51.380;13.372;2022-08-03T05:52:40;100692.78;;;18.85;75.73
68525;BME280;55524;51.380;13.372;2022-08-03T05:55:08;100688.72;;;18.92;74.55
68525;BME280;55524;51.380;13.372;2022-08-03T05:57:35;100684.13;;;19.07;74.13
68525;BME280;55524;51.380;13.372;2022-08-03T06:00:05;100689.06;;;19.26;73.04
68525;BME280;55524;51.380;13.372;2022-08-03T06:02:32;100685.66;;;19.36;72.59
68525;BME280;55524;51.380;13.372;2022-08-03T06:04:59;100685.72;;;19.48;73.03
68525;BME280;55524;51.380;13.372;2022-08-03T06:07:25;100694.09;;;19.56;73.20
68525;BME280;55524;51.380;13.372;2022-08-03T06:09:52;100685.09;;;19.70;71.47
68525;BME280;55524;51.380;13.372;2022-08-03T06:12:18;100676.03;;;19.96;69.03
68525;BME280;55524;51.380;13.372;2022-08-03T06:14:45;100676.16;;;20.19;67.95
68525;BME280;55524;51.380;13.372;2022-08-03T06:17:11;100662.41;;;20.23;67.31
68525;BME280;55524;51.380;13.372;2022-08-03T06:19:38;100658.34;;;20.42;66.65
68525;BME280;55524;51.380;13.372;2022-08-03T06:22:04;100669.50;;;20.48;66.96
68525;BME280;55524;51.380;13.372;2022-08-03T06:24:30;100662.47;;;20.58;65.83
68525;BME280;55524;51.380;13.372;2022-08-03T06:26:58;100660.22;;;20.76;65.74
68525;BME280;55524;51.380;13.372;2022-08-03T06:29:24;100668.78;;;20.81;66.62
68525;BME280;55524;51.380;13.372;2022-08-03T06:34:54;100655.44;;;21.15;64.14
68525;BME280;55524;51.380;13.372;2022-08-03T06:37:20;100635.19;;;21.45;62.21
68525;BME280;55524;51.380;13.372;2022-08-03T06:39:46;100645.94;;;21.56;63.37
68525;BME280;55524;51.380;13.372;2022-08-03T06:42:12;100637.97;;;21.66;62.00
68525;BME280;55524;51.380;13.372;2022-08-03T06:44:39;100633.56;;;21.87;60.19
68525;BME280;55524;51.380;13.372;2022-08-03T06:47:05;100631.31;;;22.03;59.12
68525;BME280;55524;51.380;13.372;2022-08-03T06:49:31;100619.94;;;22.22;58.35
68525;BME280;55524;51.380;13.372;2022-08-03T06:51:58;100614.72;;;22.42;57.54
68525;BME280;55524;51.380;13.372;2022-08-03T06:54:24;100612.72;;;22.65;56.51
68525;BME280;55524;51.380;13.372;2022-08-03T06:56:50;100615.25;;;22.77;56.94
68525;BME280;55524;51.380;13.372;2022-08-03T06:59:16;100631.13;;;22.92;58.12
68525;BME280;55524;51.380;13.372;2022-08-03T07:01:43;100610.81;;;23.09;55.56
68525;BME280;55524;51.380;13.372;2022-08-03T07:04:12;100600.97;;;23.28;54.11
68525;BME280;55524;51.380;13.372;2022-08-03T07:06:50;100599.97;;;23.39;53.80
68525;BME280;55524;51.380;13.372;2022-08-03T07:09:17;100592.81;;;23.59;53.59
68525;BME280;55524;51.380;13.372;2022-08-03T07:11:46;100595.31;;;23.82;53.68
68525;BME280;55524;51.380;13.372;2022-08-03T07:14:36;100610.13;;;23.97;54.37
68525;BME280;55524;51.380;13.372;2022-08-03T07:17:25;100590.81;;;24.30;51.22
68525;BME280;55524;51.380;13.372;2022-08-03T07:20:15;100589.00;;;24.50;50.30
68525;BME280;55524;51.380;13.372;2022-08-03T07:22:43;100585.69;;;24.66;49.21
68525;BME280;55524;51.380;13.372;2022-08-03T07:25:13;100575.16;;;24.83;48.64
68525;BME280;55524;51.380;13.372;2022-08-03T07:27:43;100570.22;;;25.06;48.14
68525;BME280;55524;51.380;13.372;2022-08-03T07:30:26;100578.31;;;25.25;48.59
68525;BME280;55524;51.380;13.372;2022-08-03T07:32:53;100582.13;;;25.32;49.39
68525;BME280;55524;51.380;13.372;2022-08-03T07:35:19;100561.56;;;25.67;46.35
68525;BME280;55524;51.380;13.372;2022-08-03T07:38:17;100553.28;;;25.96;45.74
68525;BME280;55524;51.380;13.372;2022-08-03T07:40:53;100552.78;;;26.36;44.63
68525;BME280;55524;51.380;13.372;2022-08-03T07:43:19;100557.69;;;26.77;45.68
68525;BME280;55524;51.380;13.372;2022-08-03T07:45:45;100555.81;;;27.03;43.42
68525;BME280;55524;51.380;13.372;2022-08-03T07:48:12;100543.34;;;27.44;43.47
68525;BME280;55524;51.380;13.372;2022-08-03T07:50:38;100536.44;;;27.66;42.65
68525;BME280;55524;51.380;13.372;2022-08-03T07:53:04;100528.53;;;28.06;40.99
68525;BME280;55524;51.380;13.372;2022-08-03T07:55:30;100527.38;;;28.41;41.29
68525;BME280;55524;51.380;13.372;2022-08-03T07:58:09;100526.19;;;28.60;40.86
68525;BME280;55524;51.380;13.372;2022-08-03T08:00:37;100510.84;;;28.83;38.81
68525;BME280;55524;51.380;13.372;2022-08-03T08:03:04;100505.69;;;28.97;38.50
68525;BME280;55524;51.380;13.372;2022-08-03T08:05:31;100498.19;;;29.07;37.13
68525;BME280;55524;51.380;13.372;2022-08-03T08:07:57;100493.56;;;29.15;36.78
68525;BME280;55524;51.380;13.372;2022-08-03T08:10:24;100494.06;;;29.58;35.59
68525;BME280;55524;51.380;13.372;2022-08-03T08:12:50;100474.13;;;29.27;33.92
68525;BME280;55524;51.380;13.372;2022-08-03T08:15:17;100490.06;;;29.69;35.01
68525;BME280;55524;51.380;13.372;2022-08-03T08:17:48;100495.78;;;29.82;35.39
68525;BME280;55524;51.380;13.372;2022-08-03T08:20:22;100481.31;;;29.97;32.84
68525;BME280;55524;51.380;13.372;2022-08-03T08:22:48;100478.84;;;30.10;33.29
68525;BME280;55524;51.380;13.372;2022-08-03T08:25:15;100491.69;;;30.24;35.39
68525;BME280;55524;51.380;13.372;2022-08-03T08:27:43;100474.53;;;30.68;32.90
68525;BME280;55524;51.380;13.372;2022-08-03T08:30:10;100485.78;;;30.88;34.06
68525;BME280;55524;51.380;13.372;2022-08-03T08:32:37;100479.44;;;30.58;34.36
68525;BME280;55524;51.380;13.372;2022-08-03T08:35:04;100471.16;;;30.66;32.90
68525;BME280;55524;51.380;13.372;2022-08-03T08:37:31;100489.19;;;31.05;35.76
68525;BME280;55524;51.380;13.372;2022-08-03T08:39:58;100463.88;;;30.81;31.58
68525;BME280;55524;51.380;13.372;2022-08-03T08:42:24;100472.13;;;31.03;33.92
68525;BME280;55524;51.380;13.372;2022-08-03T08:44:51;100465.59;;;31.19;31.44
68525;BME280;55524;51.380;13.372;2022-08-03T08:47:23;100470.09;;;31.26;31.89
68525;BME280;55524;51.380;13.372;2022-08-03T08:49:52;100468.56;;;31.02;31.90
68525;BME280;55524;51.380;13.372;2022-08-03T08:52:25;100477.19;;;31.21;33.02
68525;BME280;55524;51.380;13.372;2022-08-03T08:55:06;100471.44;;;30.71;32.74
68525;BME280;55524;51.380;13.372;2022-08-03T08:57:38;100478.09;;;31.28;31.81
68525;BME280;55524;51.380;13.372;2022-08-03T09:00:09;100470.72;;;31.58;31.70
68525;BME280;55524;51.380;13.372;2022-08-03T09:02:39;100463.75;;;31.55;30.81
68525;BME280;55524;51.380;13.372;2022-08-03T09:05:27;100478.06;;;31.36;32.86
68525;BME280;55524;51.380;13.372;2022-08-03T09:07:59;100466.69;;;31.75;30.96
68525;BME280;55524;51.380;13.372;2022-08-03T09:10:26;100465.91;;;31.81;31.72
68525;BME280;55524;51.380;13.372;2022-08-03T09:12:52;100467.28;;;31.71;30.81
68525;BME280;55524;51.380;13.372;2022-08-03T09:15:24;100459.28;;;31.91;29.89
68525;BME280;55524;51.380;13.372;2022-08-03T09:17:59;100458.31;;;31.98;29.80
68525;BME280;55524;51.380;13.372;2022-08-03T09:20:32;100459.13;;;32.20;30.16
68525;BME280;55524;51.380;13.372;2022-08-03T09:22:59;100457.84;;;31.95;30.82
68525;BME280;55524;51.380;13.372;2022-08-03T09:28:05;100464.94;;;32.11;29.84
68525;BME280;55524;51.380;13.372;2022-08-03T09:30:34;100454.88;;;31.90;29.50
68525;BME280;55524;51.380;13.372;2022-08-03T09:33:06;100454.91;;;32.18;29.36
68525;BME280;55524;51.380;13.372;2022-08-03T09:35:38;100451.63;;;32.57;29.26
68525;BME280;55524;51.380;13.372;2022-08-03T09:38:16;100451.88;;;32.34;29.23
68525;BME280;55524;51.380;13.372;2022-08-03T09:40:44;100449.59;;;33.00;29.09
68525;BME280;55524;51.380;13.372;2022-08-03T09:43:12;100448.44;;;33.23;29.32
68525;BME280;55524;51.380;13.372;2022-08-03T09:45:39;100433.84;;;33.16;27.57
68525;BME280;55524;51.380;13.372;2022-08-03T09:48:26;100425.22;;;33.25;26.80
68525;BME280;55524;51.380;13.372;2022-08-03T09:50:57;100439.78;;;32.85;28.54
68525;BME280;55524;51.380;13.372;2022-08-03T09:53:24;100434.81;;;32.60;28.00
68525;BME280;55524;51.380;13.372;2022-08-03T09:55:53;100442.25;;;33.14;29.39
68525;BME280;55524;51.380;13.372;2022-08-03T09:58:21;100435.69;;;33.63;27.98
68525;BME280;55524;51.380;13.372;2022-08-03T10:01:15;100426.38;;;33.58;27.06
68525;BME280;55524;51.380;13.372;2022-08-03T10:03:42;100427.22;;;33.51;27.81
68525;BME280;55524;51.380;13.372;2022-08-03T10:06:25;100427.38;;;32.89;27.54
68525;BME280;55524;51.380;13.372;2022-08-03T10:09:10;100435.75;;;33.15;28.03
68525;BME280;55524;51.380;13.372;2022-08-03T10:11:38;100422.84;;;32.68;27.42
68525;BME280;55524;51.380;13.372;2022-08-03T10:14:06;100420.59;;;33.26;27.05
68525;BME280;55524;51.380;13.372;2022-08-03T10:16:36;100414.78;;;33.49;26.17
68525;BME280;55524;51.380;13.372;2022-08-03T10:19:07;100411.78;;;33.44;26.40
68525;BME280;55524;51.380;13.372;2022-08-03T10:21:37;100409.03;;;33.44;25.96
68525;BME280;55524;51.380;13.372;2022-08-03T10:24:08;100404.69;;;33.83;26.12
68525;BME280;55524;51.380;13.372;2022-08-03T10:26:39;100407.22;;;33.64;25.97
68525;BME280;55524;51.380;13.372;2022-08-03T10:29:11;100396.50;;;34.03;24.49
68525;BME280;55524;51.380;13.372;2022-08-03T10:31:53;100392.47;;;34.18;24.71
68525;BME280;55524;51.380;13.372;2022-08-03T10:34:33;100398.16;;;34.17;24.79
68525;BME280;55524;51.380;13.372;2022-08-03T10:37:44;100372.38;;;34.24;22.20
68525;BME280;55524;51.380;13.372;2022-08-03T10:40:15;100386.72;;;34.40;23.72
68525;BME280;55524;51.380;13.372;2022-08-03T10:43:17;100388.66;;;34.26;22.95
68525;BME280;55524;51.380;13.372;2022-08-03T10:46:12;100395.13;;;33.39;24.31
68525;BME280;55524;51.380;13.372;2022-08-03T10:49:05;100393.53;;;34.17;23.53
68525;BME280;55524;51.380;13.372;2022-08-03T10:51:32;100396.69;;;34.01;25.13
68525;BME280;55524;51.380;13.372;2022-08-03T10:54:48;100376.44;;;34.09;23.38
68525;BME280;55524;51.380;13.372;2022-08-03T11:00:34;100377.41;;;34.47;22.72
68525;BME280;55524;51.380;13.372;2022-08-03T11:03:14;100374.78;;;34.79;22.52
68525;BME280;55524;51.380;13.372;2022-08-03T11:05:47;100376.53;;;34.67;23.64
68525;BME280;55524;51.380;13.372;2022-08-03T11:08:32;100378.72;;;34.32;23.47
68525;BME280;55524;51.380;13.372;2022-08-03T11:16:45;100373.47;;;33.90;23.64
68525;BME280;55524;51.380;13.372;2022-08-03T11:19:44;100382.72;;;34.42;23.79
68525;BME280;55524;51.380;13.372;2022-08-03T11:22:24;100368.34;;;34.54;23.04
68525;BME280;55524;51.380;13.372;2022-08-03T11:27:42;100372.81;;;34.28;22.44
68525;BME280;55524;51.380;13.372;2022-08-03T11:30:09;100370.28;;;34.13;22.98
68525;BME280;55524;51.380;13.372;2022-08-03T11:35:19;100359.72;;;35.02;21.91
68525;BME280;55524;51.380;13.372;2022-08-03T11:40:56;100364.06;;;34.64;22.46
68525;BME280;55524;51.380;13.372;2022-08-03T11:46:11;100372.03;;;34.79;23.32
68525;BME280;55524;51.380;13.372;2022-08-03T11:48:48;100350.44;;;35.28;20.24
68525;BME280;55524;51.380;13.372;2022-08-03T11:54:06;100356.47;;;35.50;20.92
68525;BME280;55524;51.380;13.372;2022-08-03T11:56:47;100357.84;;;35.65;22.17
68525;BME280;55524;51.380;13.372;2022-08-03T11:59:21;100359.47;;;34.52;23.55
68525;BME280;55524;51.380;13.372;2022-08-03T12:02:09;100364.88;;;35.23;24.15
68525;BME280;55524;51.380;13.372;2022-08-03T12:04:56;100355.97;;;34.83;24.29
68525;BME280;55524;51.380;13.372;2022-08-03T12:07:33;100352.94;;;35.67;22.41
68525;BME280;55524;51.380;13.372;2022-08-03T12:10:12;100358.06;;;35.64;22.91
68525;BME280;55524;51.380;13.372;2022-08-03T12:12:41;100350.59;;;35.96;22.41
68525;BME280;55524;51.380;13.372;2022-08-03T12:15:11;100348.22;;;35.18;21.65
68525;BME280;55524;51.380;13.372;2022-08-03T12:17:39;100339.63;;;34.43;22.11
68525;BME280;55524;51.380;13.372;2022-08-03T12:20:21;100342.25;;;33.65;23.30
68525;BME280;55524;51.380;13.372;2022-08-03T12:22:50;100337.25;;;34.60;22.99
68525;BME280;55524;51.380;13.372;2022-08-03T12:25:24;100341.81;;;34.86;23.76
68525;BME280;55524;51.380;13.372;2022-08-03T12:28:22;100335.78;;;35.72;22.13
68525;BME280;55524;51.380;13.372;2022-08-03T12:30:54;100335.41;;;35.37;23.76
68525;BME280;55524;51.380;13.372;2022-08-03T12:33:53;100328.97;;;35.50;21.96
68525;BME280;55524;51.380;13.372;2022-08-03T12:36:13;100333.97;;;35.28;23.58
68525;BME280;55524;51.380;13.372;2022-08-03T12:38:40;100331.03;;;35.79;22.96
68525;BME280;55524;51.380;13.372;2022-08-03T12:41:12;100314.63;;;36.34;20.51
68525;BME280;55524;51.380;13.372;2022-08-03T12:43:57;100324.69;;;36.47;20.90
68525;BME280;55524;51.380;13.372;2022-08-03T12:46:39;100307.81;;;36.37;19.97
68525;BME280;55524;51.380;13.372;2022-08-03T12:49:16;100315.16;;;36.06;20.19
68525;BME280;55524;51.380;13.372;2022-08-03T12:54:18;100305.38;;;35.85;19.62
68525;BME280;55524;51.380;13.372;2022-08-03T12:57:04;100318.69;;;35.63;22.33
68525;BME280;55524;51.380;13.372;2022-08-03T12:59:39;100294.44;;;36.40;19.33
68525;BME280;55524;51.380;13.372;2022-08-03T13:02:19;100309.03;;;35.79;21.04
68525;BME280;55524;51.380;13.372;2022-08-03T13:04:51;100307.59;;;35.95;20.26
68525;BME280;55524;51.380;13.372;2022-08-03T13:07:31;100288.63;;;36.12;18.80
68525;BME280;55524;51.380;13.372;2022-08-03T13:10:32;100303.41;;;35.92;19.94
68525;BME280;55524;51.380;13.372;2022-08-03T13:13:02;100301.09;;;36.33;19.89
68525;BME280;55524;51.380;13.372;2022-08-03T13:15:31;100292.19;;;36.31;19.71
68525;BME280;55524;51.380;13.372;2022-08-03T13:17:58;100298.25;;;36.76;20.20
68525;BME280;55524;51.380;13.372;2022-08-03T13:20:24;100283.94;;;36.98;18.94
68525;BME280;55524;51.380;13.372;2022-08-03T13:22:53;100290.59;;;36.90;19.19
68525;BME280;55524;51.380;13.372;2022-08-03T13:25:24;100280.66;;;36.89;19.38
68525;BME280;55524;51.380;13.372;2022-08-03T13:27:59;100286.09;;;36.65;17.62
68525;BME280;55524;51.380;13.372;2022-08-03T13:30:25;100288.78;;;36.54;17.82
68525;BME280;55524;51.380;13.372;2022-08-03T13:32:52;100291.53;;;36.35;19.85
68525;BME280;55524;51.380;13.372;2022-08-03T13:35:18;100278.81;;;36.34;17.00
68525;BME280;55524;51.380;13.372;2022-08-03T13:37:44;100280.50;;;36.54;19.07
68525;BME280;55524;51.380;13.372;2022-08-03T13:40:13;100279.72;;;36.65;17.42
68525;BME280;55524;51.380;13.372;2022-08-03T13:42:57;100279.06;;;37.00;17.71
68525;BME280;55524;51.380;13.372;2022-08-03T13:45:24;100277.41;;;36.80;18.41